Time;durP1;ratioP1;P1;durP2;ratioP2;P2;SDS_P1;SDS_P2;PMS_P1;PMS_P2;Temp;Humidity;BMP_temperature;BMP_pressure;BME280_temperature;BME280_humidity;BME280_pressure;Samples;Min_cycle;Max_cycle;Signal;HPM_P1;HPM_P2
2022/11/08 00:02:25;;;;;;;8.20;1.50;;;;;;;10.23;82.07;97915.75;4991440;28;20093;-43
2022/11/08 00:04:52;;;;;;;9.32;1.73;;;;;;;10.23;82.13;97919.31;4996626;28;20137;-44
2022/11/08 00:15:37;;;;;;;13.65;1.40;;;;;;;10.15;81.33;97920.56;4984602;28;20042;-44
2022/11/08 00:18:06;;;;;;;14.23;0.93;;;;;;;10.12;81.16;97929.69;4982059;28;20042;-43
2022/11/08 00:20:33;;;;;;;4.50;1.00;;;;;;;10.12;81.01;97929.69;4986212;28;20241;-44
2022/11/08 00:23:00;;;;;;;9.70;1.88;;;;;;;10.12;81.03;97918.63;4990768;28;20035;-44
2022/11/08 00:25:26;;;;;;;7.25;1.42;;;;;;;10.12;81.03;97926.91;4987771;28;20058;-46
2022/11/08 00:27:53;;;;;;;10.00;1.40;;;;;;;10.12;80.85;97931.63;4984938;28;20053;-43
2022/11/08 00:30:20;;;;;;;8.68;1.08;;;;;;;10.06;80.85;97945.09;4985028;28;20042;-44
2022/11/08 00:32:46;;;;;;;4.57;1.20;;;;;;;10.04;81.17;97936.44;4989004;28;20504;-44
2022/11/08 00:35:13;;;;;;;7.90;1.30;;;;;;;10.05;81.24;97937.22;4986159;28;20464;-47
2022/11/08 00:37:40;;;;;;;4.43;1.02;;;;;;;10.03;81.02;97945.94;4989701;28;20558;-43
2022/11/08 00:40:07;;;;;;;6.97;1.95;;;;;;;10.03;81.12;97936.88;4989190;28;20105;-43
2022/11/08 00:42:34;;;;;;;8.32;1.27;;;;;;;10.00;81.24;97941.22;4987584;28;20050;-44
2022/11/08 00:45:00;;;;;;;7.78;1.88;;;;;;;9.98;81.32;97943.59;4987876;28;20050;-44
2022/11/08 00:47:27;;;;;;;11.68;1.95;;;;;;;9.97;81.35;97958.63;4985760;28;20057;-47
2022/11/08 00:49:54;;;;;;;9.10;1.88;;;;;;;9.93;81.50;97946.81;4988814;28;20415;-52
2022/11/08 00:52:20;;;;;;;13.13;2.53;;;;;;;9.91;81.61;97949.19;4987547;28;20056;-44
2022/11/08 00:54:47;;;;;;;5.03;1.40;;;;;;;9.90;81.59;97952.38;4990630;28;20053;-44
2022/11/08 00:57:14;;;;;;;7.70;2.17;;;;;;;9.88;81.64;97950.00;4988741;28;20038;-44
2022/11/08 00:59:40;;;;;;;11.75;1.95;;;;;;;9.88;81.95;97955.53;4990097;28;20055;-44
2022/11/08 01:02:07;;;;;;;14.68;1.80;;;;;;;9.88;82.10;97961.06;4990661;28;20088;-44
2022/11/08 01:04:34;;;;;;;10.88;1.65;;;;;;;9.89;82.04;97953.56;4983503;28;20830;-46
2022/11/08 01:07:01;;;;;;;10.43;1.70;;;;;;;9.88;82.09;97955.53;4977233;28;20050;-43
2022/11/08 01:09:27;;;;;;;7.22;1.67;;;;;;;9.87;82.20;97958.72;4990580;28;20038;-45
2022/11/08 01:11:54;;;;;;;13.43;1.58;;;;;;;9.84;82.32;97954.00;4990570;28;20046;-45
2022/11/08 01:14:21;;;;;;;7.95;1.52;;;;;;;9.83;82.30;97955.97;4998172;28;20057;-44
2022/11/08 01:16:47;;;;;;;17.60;2.47;;;;;;;9.80;82.32;97949.28;4984917;28;20046;-43
2022/11/08 01:19:14;;;;;;;8.60;2.38;;;;;;;9.79;82.43;97952.47;4979459;28;20048;-50
2022/11/08 01:21:41;;;;;;;9.50;1.60;;;;;;;9.77;82.50;97952.06;4989392;28;20408;-44
2022/11/08 01:24:07;;;;;;;8.30;1.52;;;;;;;9.75;82.52;97951.72;4987551;28;20550;-43
2022/11/08 01:26:34;;;;;;;16.00;2.38;;;;;;;9.74;82.44;97950.91;4988718;28;20050;-44
2022/11/08 01:29:01;;;;;;;10.15;2.42;;;;;;;9.74;82.57;97952.91;4984844;28;20591;-46
2022/11/08 01:31:30;;;;;;;11.85;1.63;;;;;;;9.72;82.39;97947.00;4980531;28;20145;-49
2022/11/08 01:33:58;;;;;;;15.57;2.33;;;;;;;9.74;82.22;97950.16;4984880;28;20058;-45
2022/11/08 01:36:26;;;;;;;13.35;2.17;;;;;;;9.74;82.13;97955.69;4987346;28;20468;-44
2022/11/08 01:38:54;;;;;;;8.68;1.80;;;;;;;9.75;82.08;97946.19;4987926;28;20042;-44
2022/11/08 01:41:23;;;;;;;9.70;1.98;;;;;;;9.75;81.71;97946.19;4988302;28;20066;-49
2022/11/08 01:43:55;;;;;;;7.53;2.15;;;;;;;9.73;81.72;97951.34;4989796;28;20061;-45
2022/11/08 01:46:33;;;;;;;12.60;2.08;;;;;;;9.70;81.51;97957.66;4990023;28;20041;-44
2022/11/08 01:49:09;;;;;;;9.43;1.65;;;;;;;9.68;81.53;97965.59;4980042;28;20082;-46
2022/11/08 01:51:40;;;;;;;7.78;2.65;;;;;;;9.67;81.40;97964.00;4986142;28;20050;-44
2022/11/08 01:54:11;;;;;;;9.57;1.67;;;;;;;9.64;81.62;97962.84;4988680;28;20401;-44
2022/11/08 01:56:40;;;;;;;15.88;2.22;;;;;;;9.64;81.42;97962.06;4988461;28;20404;-45
2022/11/08 01:59:09;;;;;;;6.50;1.38;;;;;;;9.63;81.23;97954.97;4989489;28;20120;-44
2022/11/08 02:01:35;;;;;;;12.50;2.28;;;;;;;9.63;81.31;97949.44;4989198;28;20105;-43
2022/11/08 02:04:03;;;;;;;11.40;3.10;;;;;;;9.59;81.22;97959.72;4985434;28;20548;-45
2022/11/08 02:06:34;;;;;;;11.25;2.10;;;;;;;9.57;81.16;97953.81;4981201;28;20047;-48
2022/11/08 02:09:03;;;;;;;12.35;1.70;;;;;;;9.55;81.29;97950.69;4989504;28;20050;-44
2022/11/08 02:11:32;;;;;;;7.45;1.70;;;;;;;9.51;81.21;97947.94;4989630;28;20149;-45
2022/11/08 02:13:59;;;;;;;9.35;1.50;;;;;;;9.49;81.21;97947.56;4978281;28;20050;-44
2022/11/08 02:16:26;;;;;;;12.73;1.98;;;;;;;9.48;81.19;97939.69;4989649;28;20053;-43
2022/11/08 02:18:53;;;;;;;12.10;1.63;;;;;;;9.46;81.25;97950.34;4989269;28;20439;-49
2022/11/08 02:21:54;;;;;;;13.27;1.60;;;;;;;9.44;81.30;97947.22;4991356;28;20061;-44
2022/11/08 02:24:20;;;;;;;12.82;2.15;;;;;;;9.45;81.51;97948.81;4981744;28;20062;-43
2022/11/08 02:26:51;;;;;;;11.82;1.48;;;;;;;9.45;81.34;97933.00;4988077;28;20113;-48
2022/11/08 02:29:31;;;;;;;10.68;1.75;;;;;;;9.43;81.31;97935.38;4987027;28;20141;-43
2022/11/08 02:32:00;;;;;;;14.38;3.35;;;;;;;9.42;81.73;97933.03;4989194;28;20042;-52
2022/11/08 02:34:29;;;;;;;9.55;1.95;;;;;;;9.42;81.84;97938.56;4986147;28;20049;-43
2022/11/08 02:36:58;;;;;;;15.88;2.17;;;;;;;9.40;81.98;97941.72;4989495;28;20050;-44
2022/11/08 02:39:24;;;;;;;18.13;2.97;;;;;;;9.40;82.14;97947.22;4975483;28;20135;-44
2022/11/08 02:41:51;;;;;;;13.70;1.92;;;;;;;9.39;82.09;97923.59;4982226;28;20050;-44
2022/11/08 02:44:18;;;;;;;8.93;1.88;;;;;;;9.40;82.33;97930.66;4989212;28;20054;-46
2022/11/08 02:46:45;;;;;;;10.38;1.85;;;;;;;9.41;82.23;97928.69;4989245;28;20050;-44
2022/11/08 02:49:12;;;;;;;13.05;2.15;;;;;;;9.41;82.27;97921.19;4989506;28;20475;-44
2022/11/08 02:51:39;;;;;;;9.73;2.80;;;;;;;9.40;82.39;97925.16;4988989;28;20427;-46
2022/11/08 02:54:06;;;;;;;17.58;2.25;;;;;;;9.39;82.36;97922.81;4990189;28;20046;-47
2022/11/08 02:56:32;;;;;;;9.90;2.85;;;;;;;9.36;82.40;97918.09;4988276;28;20042;-44
2022/11/08 02:58:59;;;;;;;11.90;2.65;;;;;;;9.35;82.41;97913.75;4979252;28;20053;-47
2022/11/08 03:01:25;;;;;;;7.22;1.85;;;;;;;9.32;82.42;97912.56;5018457;23;20607;-44
2022/11/08 03:03:53;;;;;;;13.07;1.75;;;;;;;9.30;82.58;97916.94;4988595;28;20043;-43
2022/11/08 03:06:19;;;;;;;10.55;2.97;;;;;;;9.28;82.33;97906.31;4989176;28;20055;-45
2022/11/08 03:08:46;;;;;;;13.80;2.63;;;;;;;9.27;82.55;97910.25;4989188;28;20042;-43
2022/11/08 03:11:13;;;;;;;5.15;2.20;;;;;;;9.25;82.57;97909.09;4990613;28;20042;-45
2022/11/08 03:13:39;;;;;;;11.77;2.47;;;;;;;9.23;82.49;97897.66;4990515;28;20377;-48
2022/11/08 03:16:06;;;;;;;10.95;1.98;;;;;;;9.20;82.63;97893.75;4981634;28;20038;-44
2022/11/08 03:18:33;;;;;;;11.52;2.63;;;;;;;9.20;82.78;97893.75;4988552;28;20070;-43
2022/11/08 03:21:02;;;;;;;11.25;2.08;;;;;;;9.19;82.88;97898.47;4986689;28;20042;-48
2022/11/08 03:23:30;;;;;;;11.93;2.10;;;;;;;9.17;83.03;97889.81;4990330;28;20054;-44
2022/11/08 03:26:03;;;;;;;20.63;2.78;;;;;;;9.17;83.05;97889.81;4989615;28;20052;-49
2022/11/08 03:28:30;;;;;;;16.17;2.78;;;;;;;9.16;83.08;97882.72;4995797;28;20064;-44
2022/11/08 03:30:57;;;;;;;12.00;2.55;;;;;;;9.16;83.21;97879.97;4985902;28;20045;-45
2022/11/08 03:33:24;;;;;;;9.60;1.75;;;;;;;9.17;83.33;97880.75;4979344;28;20094;-44
2022/11/08 03:35:51;;;;;;;8.20;1.73;;;;;;;9.18;83.44;97880.38;4992323;28;20046;-44
2022/11/08 03:38:18;;;;;;;10.80;1.83;;;;;;;9.18;83.53;97866.56;4991074;28;20050;-44
2022/11/08 03:40:45;;;;;;;17.70;3.00;;;;;;;9.19;83.71;97862.59;4991053;28;20082;-47
2022/11/08 03:43:12;;;;;;;16.10;3.47;;;;;;;9.21;83.88;97855.91;4990350;28;20042;-46
2022/11/08 03:45:39;;;;;;;8.07;2.63;;;;;;;9.21;83.87;97859.44;4988679;28;20129;-46
2022/11/08 03:48:07;;;;;;;11.38;2.28;;;;;;;9.22;84.11;97852.72;4989728;28;20058;-44
2022/11/08 03:50:34;;;;;;;7.72;2.00;;;;;;;9.21;84.12;97850.38;4989886;28;20531;-44
2022/11/08 03:53:00;;;;;;;17.67;3.05;;;;;;;9.21;84.15;97850.38;4991093;28;20447;-48
2022/11/08 03:55:27;;;;;;;14.82;2.72;;;;;;;9.22;84.46;97840.88;4991525;28;20047;-46
2022/11/08 03:57:54;;;;;;;8.43;1.83;;;;;;;9.23;84.52;97832.22;4978494;28;20661;-44
2022/11/08 04:00:25;;;;;;;8.35;1.77;;;;;;;9.25;84.62;97831.78;4987003;28;20065;-44
2022/11/08 04:02:54;;;;;;;13.70;3.75;;;;;;;9.29;84.62;97827.84;4984772;28;20442;-44
2022/11/08 04:05:20;;;;;;;17.70;2.25;;;;;;;9.34;84.67;97813.59;4977054;28;20492;-45
2022/11/08 04:07:47;;;;;;;10.82;2.58;;;;;;;9.36;84.64;97813.16;4988342;28;20117;-45
2022/11/08 04:10:14;;;;;;;9.07;2.45;;;;;;;9.37;84.67;97814.75;4990632;28;20496;-47
2022/11/08 04:15:28;;;;;;;7.95;3.00;;;;;;;9.39;84.75;97806.84;4990098;28;20054;-46
2022/11/08 04:23:31;;;;;;;7.78;1.35;;;;;;;9.44;85.13;97798.09;4986895;28;20515;-44
2022/11/08 04:26:00;;;;;;;9.45;2.17;;;;;;;9.45;85.26;97796.94;4990950;28;20039;-44
2022/11/08 04:28:29;;;;;;;16.25;3.28;;;;;;;9.42;85.38;97789.47;4989669;28;20050;-44
2022/11/08 04:30:59;;;;;;;11.18;1.50;;;;;;;9.42;85.54;97778.41;4990423;28;20373;-43
2022/11/08 04:33:28;;;;;;;6.43;2.15;;;;;;;9.40;85.64;97780.81;4990726;28;20082;-44
2022/11/08 04:36:00;;;;;;;9.30;1.45;;;;;;;9.39;85.85;97779.22;4989685;28;20054;-44
2022/11/08 04:38:27;;;;;;;7.00;1.73;;;;;;;9.37;85.86;97785.13;4988578;28;20046;-45
2022/11/08 04:41:01;;;;;;;7.38;1.80;;;;;;;9.35;86.09;97773.72;4990185;28;20510;-44
2022/11/08 04:43:29;;;;;;;8.65;2.03;;;;;;;9.36;86.24;97782.81;4982692;28;20051;-46
2022/11/08 04:46:05;;;;;;;14.00;1.80;;;;;;;9.36;86.42;97780.03;4988723;28;20053;-44
2022/11/08 04:48:32;;;;;;;7.35;1.83;;;;;;;9.37;86.68;97776.09;4989241;28;20089;-45
2022/11/08 04:51:08;;;;;;;8.90;1.20;;;;;;;9.37;86.79;97776.09;4988604;28;20057;-45
2022/11/08 04:53:35;;;;;;;6.47;1.50;;;;;;;9.39;86.99;97768.97;4992923;28;20103;-46
2022/11/08 04:56:04;;;;;;;10.68;1.60;;;;;;;9.41;87.17;97766.56;4995570;28;20054;-43
2022/11/08 04:58:36;;;;;;;8.73;1.60;;;;;;;9.44;87.30;97771.28;4973036;28;20061;-44
2022/11/08 05:01:04;;;;;;;11.20;2.03;;;;;;;9.46;87.42;97768.09;4988336;28;20487;-44
2022/11/08 05:03:31;;;;;;;7.60;1.70;;;;;;;9.49;87.47;97770.03;4991154;28;20625;-51
2022/11/08 05:06:04;;;;;;;6.85;1.98;;;;;;;9.49;87.73;97765.31;4989138;28;20046;-45
2022/11/08 05:08:30;;;;;;;;;;;;;;;9.48;87.76;97769.25;4987992;28;20089;-45
2022/11/08 05:11:18;;;;;;;5.53;1.40;;;;;;;9.49;87.89;97772.81;4986441;28;19930;-49
2022/11/08 05:13:46;;;;;;;7.93;1.88;;;;;;;9.50;87.98;97757.81;4990041;28;20593;-44
2022/11/08 05:16:17;;;;;;;10.18;1.42;;;;;;;9.52;88.01;97758.19;4987831;28;20492;-44
2022/11/08 05:18:45;;;;;;;7.10;1.63;;;;;;;9.54;88.08;97758.56;4978728;28;20038;-47
2022/11/08 05:24:02;;;;;;;11.80;1.58;;;;;;;9.62;88.18;97760.03;4990293;28;20134;-49
2022/11/08 05:26:29;;;;;;;9.27;1.95;;;;;;;9.63;88.37;97723.75;4988092;28;20046;-44
2022/11/08 05:28:56;;;;;;;9.80;1.58;;;;;;;9.65;88.40;97681.88;4994961;28;20057;-42
2022/11/08 05:31:22;;;;;;;8.27;1.45;;;;;;;9.64;88.51;97696.88;4989900;28;20051;-42
2022/11/08 05:33:49;;;;;;;7.38;2.55;;;;;;;9.63;88.85;97723.75;4989659;28;20057;-43
2022/11/08 05:36:16;;;;;;;13.73;1.80;;;;;;;9.62;89.06;97735.19;4987089;28;20042;-43
2022/11/08 05:38:43;;;;;;;5.68;1.42;;;;;;;9.62;89.21;97735.19;4988304;28;20053;-44
2022/11/08 05:41:14;;;;;;;6.55;1.48;;;;;;;9.61;89.47;97736.41;4989052;28;20050;-43
2022/11/08 05:43:42;;;;;;;12.47;2.17;;;;;;;9.58;89.81;97726.16;4989172;28;20046;-44
2022/11/08 05:46:08;;;;;;;8.20;1.63;;;;;;;9.57;90.03;97724.59;4986830;28;20053;-43
2022/11/08 05:48:35;;;;;;;6.25;1.52;;;;;;;9.56;90.10;97721.03;4988577;28;20050;-44
2022/11/08 05:51:02;;;;;;;9.48;2.47;;;;;;;9.56;90.46;97717.50;4989195;28;20057;-43
2022/11/08 05:53:30;;;;;;;10.88;2.25;;;;;;;9.55;90.73;97716.72;4989290;28;20053;-42
2022/11/08 05:55:58;;;;;;;7.38;1.88;;;;;;;9.52;91.01;97706.50;4989094;28;20122;-43
2022/11/08 05:58:26;;;;;;;8.27;1.90;;;;;;;9.50;90.93;97688.78;4985859;28;20049;-44
2022/11/08 06:01:03;;;;;;;6.75;2.45;;;;;;;9.48;91.44;97689.16;4986499;28;20065;-46
2022/11/08 06:03:30;;;;;;;10.32;2.10;;;;;;;9.48;91.63;97691.16;4988876;28;20141;-45
2022/11/08 06:06:03;;;;;;;6.53;3.03;;;;;;;9.47;91.87;97681.31;4987548;28;20056;-47
2022/11/08 06:08:29;;;;;;;6.05;1.45;;;;;;;9.46;92.07;97675.00;4988654;28;20514;-46
2022/11/08 06:11:04;;;;;;;6.88;1.33;;;;;;;9.46;92.21;97679.72;4985189;28;20054;-46
2022/11/08 06:13:31;;;;;;;6.63;1.45;;;;;;;9.45;92.49;97672.66;4984160;28;20570;-43
2022/11/08 06:16:00;;;;;;;4.20;1.40;;;;;;;9.45;92.56;97683.72;4979825;28;20042;-44
2022/11/08 06:18:28;;;;;;;5.85;1.70;;;;;;;9.44;92.90;97676.59;4979647;28;20463;-45
2022/11/08 06:20:57;;;;;;;8.43;2.22;;;;;;;9.43;92.99;97677.78;4983426;28;20077;-49
2022/11/08 06:23:24;;;;;;;6.03;1.77;;;;;;;9.44;92.98;97676.59;4987989;28;20058;-43
2022/11/08 06:25:51;;;;;;;3.85;1.08;;;;;;;9.44;93.14;97668.31;4988519;28;20046;-42
2022/11/08 06:28:18;;;;;;;6.28;1.40;;;;;;;9.44;93.38;97665.56;4989704;28;20042;-42
2022/11/08 06:30:45;;;;;;;5.93;1.05;;;;;;;9.45;93.56;97661.63;4983521;28;20500;-43
2022/11/08 06:33:12;;;;;;;6.43;2.03;;;;;;;9.45;93.50;97656.09;4987456;28;20682;-46
2022/11/08 06:35:39;;;;;;;3.67;0.80;;;;;;;9.45;93.73;97676.19;4987864;28;20042;-45
2022/11/08 06:38:06;;;;;;;6.53;1.00;;;;;;;9.48;93.81;97672.59;4989758;28;20396;-43
2022/11/08 06:40:36;;;;;;;6.20;0.90;;;;;;;9.50;93.88;97673.00;4984945;28;20050;-43
2022/11/08 06:43:03;;;;;;;4.65;2.08;;;;;;;9.51;93.65;97677.31;4988939;28;20046;-44
2022/11/08 06:45:30;;;;;;;4.75;0.77;;;;;;;9.53;93.53;97674.16;4989699;28;20478;-43
2022/11/08 06:48:01;;;;;;;4.47;0.63;;;;;;;9.58;93.51;97670.94;4992713;28;20043;-43
2022/11/08 06:50:29;;;;;;;8.48;1.75;;;;;;;9.59;93.15;97661.44;4985359;28;20053;-43
2022/11/08 06:52:57;;;;;;;14.75;1.48;;;;;;;9.58;92.95;97663.41;4996702;28;20061;-43
2022/11/08 06:55:24;;;;;;;3.40;0.80;;;;;;;9.55;92.77;97657.94;4990749;28;20177;-43
2022/11/08 06:57:51;;;;;;;4.38;0.95;;;;;;;9.53;92.86;97663.09;4990650;28;20125;-43
2022/11/08 07:00:18;;;;;;;3.85;1.02;;;;;;;9.52;92.65;97650.47;4991657;28;20443;-42
2022/11/08 07:02:54;;;;;;;8.05;1.23;;;;;;;9.51;92.67;97655.22;4989778;28;20065;-42
2022/11/08 07:05:21;;;;;;;10.63;3.63;;;;;;;9.52;92.48;97656.00;4990250;28;20129;-42
2022/11/08 07:07:51;;;;;;;3.25;0.73;;;;;;;9.52;92.28;97650.47;4992858;28;20054;-43
2022/11/08 07:10:19;;;;;;;3.42;0.90;;;;;;;9.51;92.13;97659.94;4993515;28;20473;-44
2022/11/08 07:12:46;;;;;;;5.05;1.00;;;;;;;9.49;92.05;97643.81;4991904;28;20046;-42
2022/11/08 07:15:14;;;;;;;5.40;1.20;;;;;;;9.49;92.09;97651.31;4988378;28;20034;-42
2022/11/08 07:17:40;;;;;;;3.40;0.80;;;;;;;9.47;91.92;97626.88;4983720;28;20070;-50
2022/11/08 07:20:08;;;;;;;8.02;1.50;;;;;;;9.46;92.14;97633.59;4985857;28;20071;-42
2022/11/08 07:22:35;;;;;;;7.88;1.00;;;;;;;9.46;92.00;97641.06;4991282;28;20054;-45
2022/11/08 07:25:01;;;;;;;7.82;1.27;;;;;;;9.49;91.87;97640.25;4990977;28;20046;-45
2022/11/08 07:27:29;;;;;;;6.72;0.80;;;;;;;9.51;91.87;97643.38;4992320;28;20074;-45
2022/11/08 07:29:55;;;;;;;10.52;1.17;;;;;;;9.51;91.83;97637.84;4991389;28;20746;-43
2022/11/08 07:32:22;;;;;;;4.60;0.93;;;;;;;9.52;91.77;97639.44;4991285;28;20046;-44
2022/11/08 07:34:48;;;;;;;3.95;1.33;;;;;;;9.52;91.71;97644.97;4989091;28;20046;-51
2022/11/08 07:37:15;;;;;;;8.13;2.03;;;;;;;9.51;91.70;97648.91;4992563;28;20055;-47
2022/11/08 07:39:42;;;;;;;8.18;1.77;;;;;;;9.50;91.59;97655.63;4985675;28;20091;-44
2022/11/08 07:42:08;;;;;;;7.88;2.42;;;;;;;9.49;91.67;97651.31;4981873;28;20643;-45
2022/11/08 07:44:35;;;;;;;6.90;1.35;;;;;;;9.46;91.51;97652.13;4998264;28;20050;-43
2022/11/08 07:47:02;;;;;;;8.13;0.93;;;;;;;9.47;91.53;97650.94;4991701;28;20050;-43
2022/11/08 07:49:31;;;;;;;6.55;1.08;;;;;;;9.45;91.47;97650.56;4991538;28;20092;-43
2022/11/08 07:51:58;;;;;;;5.10;1.58;;;;;;;9.44;91.38;97660.03;4992330;28;20049;-44
2022/11/08 07:54:24;;;;;;;6.68;1.10;;;;;;;9.40;91.54;97664.84;4984329;28;20055;-43
2022/11/08 07:56:52;;;;;;;5.22;1.10;;;;;;;9.37;91.48;97657.38;4991111;28;20054;-44
2022/11/08 07:59:19;;;;;;;4.78;1.73;;;;;;;9.35;91.40;97657.78;4992389;28;20054;-43
2022/11/08 08:01:45;;;;;;;8.00;1.45;;;;;;;9.32;91.50;97668.88;4994206;28;20069;-43
2022/11/08 08:04:12;;;;;;;8.18;1.30;;;;;;;9.29;91.49;97667.72;4990643;28;20145;-45
2022/11/08 08:06:39;;;;;;;10.25;1.35;;;;;;;9.28;91.54;97662.59;4990723;28;20030;-42
2022/11/08 08:09:06;;;;;;;6.07;0.75;;;;;;;9.25;91.53;97677.22;4988539;28;21049;-44
2022/11/08 08:11:32;;;;;;;4.97;0.77;;;;;;;9.24;91.57;97673.66;4987688;28;20042;-43
2022/11/08 08:13:59;;;;;;;6.13;1.20;;;;;;;9.25;91.38;97679.97;4991978;28;20043;-43
2022/11/08 08:16:26;;;;;;;8.25;3.05;;;;;;;9.22;91.51;97678.81;4991003;28;20050;-43
2022/11/08 08:18:53;;;;;;;5.60;0.93;;;;;;;9.24;91.61;97690.22;4991893;28;20043;-44
2022/11/08 08:21:22;;;;;;;3.65;0.73;;;;;;;9.26;91.38;97682.34;4977741;28;20046;-44
2022/11/08 08:23:49;;;;;;;4.15;1.45;;;;;;;9.27;91.28;97677.56;4988602;28;20489;-43
2022/11/08 08:26:15;;;;;;;8.02;0.80;;;;;;;9.28;91.22;97681.91;4980712;28;20073;-43
2022/11/08 08:28:42;;;;;;;7.57;1.27;;;;;;;9.28;91.06;97698.47;4988029;28;20050;-44
2022/11/08 08:31:09;;;;;;;4.88;0.90;;;;;;;9.27;90.99;97705.19;4988958;28;20054;-42
2022/11/08 08:33:36;;;;;;;1.45;1.33;;;;;;;9.28;90.98;97701.25;4980933;28;20049;-44
2022/11/08 08:36:04;;;;;;;1.85;0.57;;;;;;;9.30;90.96;97709.88;4989596;28;20060;-43
2022/11/08 08:38:32;;;;;;;3.05;0.47;;;;;;;9.33;90.82;97701.56;4985473;28;20046;-44
2022/11/08 08:40:59;;;;;;;2.55;0.60;;;;;;;9.36;90.58;97702.72;4988115;28;20052;-43
2022/11/08 08:43:27;;;;;;;3.00;0.57;;;;;;;9.37;90.39;97709.84;4991145;28;20150;-46
2022/11/08 08:45:58;;;;;;;2.10;0.43;;;;;;;9.39;90.30;97691.66;4986768;28;20041;-50
2022/11/08 08:48:25;;;;;;;4.03;0.50;;;;;;;9.44;90.24;97701.47;4988906;28;20129;-47
2022/11/08 08:50:51;;;;;;;2.80;0.73;;;;;;;9.47;89.98;97704.19;4988839;28;20381;-44
2022/11/08 08:53:18;;;;;;;5.72;0.65;;;;;;;9.51;89.73;97717.94;4985550;28;20042;-44
2022/11/08 08:55:46;;;;;;;2.85;0.60;;;;;;;9.53;89.69;97705.28;4987145;28;20447;-45
2022/11/08 08:58:13;;;;;;;5.60;0.65;;;;;;;9.56;89.48;97698.94;4985269;28;20046;-43
2022/11/08 09:00:40;;;;;;;5.47;1.98;;;;;;;9.58;89.45;97709.59;4987771;28;20038;-50
2022/11/08 09:03:27;;;;;;;4.35;1.48;;;;;;;9.60;89.31;97704.44;4985191;28;20054;-44
2022/11/08 09:05:58;;;;;;;4.85;0.57;;;;;;;9.63;89.23;97700.84;4990254;28;20496;-44
2022/11/08 09:08:26;;;;;;;2.15;1.25;;;;;;;9.64;89.09;97703.19;4948491;28;20062;-46
2022/11/08 09:10:57;;;;;;;9.40;1.10;;;;;;;9.64;89.01;97716.22;4960225;28;21217;-46
2022/11/08 09:13:27;;;;;;;9.75;2.13;;;;;;;9.64;88.88;97717.00;4985305;28;20066;-43
2022/11/08 09:15:54;;;;;;;2.45;0.73;;;;;;;9.64;88.67;97713.44;4989371;28;20424;-49
2022/11/08 09:18:22;;;;;;;5.70;0.65;;;;;;;9.63;88.59;97715.44;4985571;28;20054;-43
2022/11/08 09:20:49;;;;;;;3.75;0.85;;;;;;;9.65;88.60;97720.56;4987446;28;20073;-47
2022/11/08 09:23:16;;;;;;;3.88;1.13;;;;;;;9.68;88.51;97723.28;4990452;28;20077;-44
2022/11/08 09:25:44;;;;;;;3.55;0.75;;;;;;;9.75;88.50;97723.19;4984082;28;20046;-42
2022/11/08 09:28:10;;;;;;;6.20;1.02;;;;;;;9.81;88.19;97729.03;4987994;28;20083;-43
2022/11/08 09:30:37;;;;;;;4.07;0.82;;;;;;;9.89;88.15;97722.25;4989962;28;20042;-43
2022/11/08 09:33:04;;;;;;;14.02;1.08;;;;;;;9.97;87.71;97725.69;4981715;28;20058;-48
2022/11/08 09:35:31;;;;;;;5.13;1.05;;;;;;;10.03;87.70;97724.84;4986187;28;20377;-43
2022/11/08 09:37:57;;;;;;;4.88;1.00;;;;;;;10.07;87.35;97725.56;4987928;28;20065;-43
2022/11/08 09:40:47;;;;;;;4.47;0.88;;;;;;;10.11;87.26;97725.53;4989653;28;20062;-43
2022/11/08 09:43:59;;;;;;;1.90;0.60;;;;;;;10.10;86.94;97715.66;4989497;28;20077;-43
2022/11/08 09:46:38;;;;;;;3.42;1.20;;;;;;;10.11;86.81;97715.22;4931737;29;20141;-43
2022/11/08 09:49:12;;;;;;;5.32;1.00;;;;;;;10.18;86.79;97717.16;4941230;29;20061;-43
2022/11/08 09:51:39;;;;;;;4.53;0.95;;;;;;;10.20;86.42;97707.25;4973277;28;20058;-44
2022/11/08 09:54:11;;;;;;;5.28;1.13;;;;;;;10.21;86.32;97725.41;4984567;28;20061;-44
2022/11/08 09:56:46;;;;;;;5.15;0.85;;;;;;;10.20;86.06;97711.97;4985290;28;20038;-43
2022/11/08 09:59:30;;;;;;;4.80;1.52;;;;;;;10.18;86.27;97715.16;4986970;28;20050;-45
2022/11/08 10:01:58;;;;;;;8.65;1.00;;;;;;;10.16;86.28;97714.03;4980018;28;20112;-44
2022/11/08 10:04:31;;;;;;;6.43;1.48;;;;;;;10.15;86.26;97732.59;4988274;28;20115;-43
2022/11/08 10:07:27;;;;;;;4.35;1.10;;;;;;;10.16;86.16;97730.59;4983241;28;20053;-44
2022/11/08 10:09:57;;;;;;;6.32;1.85;;;;;;;10.18;85.94;97720.69;4983308;28;20133;-47
2022/11/08 10:12:32;;;;;;;5.22;1.10;;;;;;;10.24;85.66;97719.03;4987129;28;20046;-51
2022/11/08 10:15:21;;;;;;;8.05;1.10;;;;;;;10.31;85.42;97723.69;4986633;28;20042;-45
2022/11/08 10:17:50;;;;;;;3.80;1.33;;;;;;;10.36;85.42;97717.69;4983155;28;20058;-44
2022/11/08 10:20:42;;;;;;;5.38;1.40;;;;;;;10.42;85.06;97718.00;4986366;28;20534;-44
2022/11/08 10:23:29;;;;;;;6.17;0.97;;;;;;;10.46;84.71;97707.69;4981613;28;20416;-43
2022/11/08 10:26:10;;;;;;;21.50;3.45;;;;;;;10.47;84.60;97714.75;5000583;28;20416;-46
2022/11/08 10:28:48;;;;;;;6.30;1.27;;;;;;;10.46;84.58;97713.97;4987192;28;20049;-48
2022/11/08 10:31:18;;;;;;;8.30;1.75;;;;;;;10.48;84.70;97708.03;4983334;28;20062;-45
2022/11/08 10:33:53;;;;;;;10.90;1.25;;;;;;;10.50;84.71;97714.72;4992045;28;20038;-44
2022/11/08 10:36:26;;;;;;;6.68;1.10;;;;;;;10.52;84.50;97722.59;4981471;28;20141;-43
2022/11/08 10:39:03;;;;;;;7.28;1.13;;;;;;;10.55;84.46;97710.69;4987293;28;20413;-43
2022/11/08 10:41:42;;;;;;;5.93;1.50;;;;;;;10.55;84.42;97722.53;4989257;28;20077;-47
2022/11/08 10:44:19;;;;;;;4.00;0.93;;;;;;;10.55;84.08;97721.75;4985829;28;20039;-45
2022/11/08 10:46:57;;;;;;;11.10;2.72;;;;;;;10.56;83.92;97709.50;4983430;28;20420;-43
2022/11/08 10:49:36;;;;;;;7.10;1.40;;;;;;;10.58;84.00;97707.09;4989169;28;20046;-46
2022/11/08 10:52:19;;;;;;;8.25;1.58;;;;;;;10.65;83.87;97718.81;4991819;28;20046;-51
2022/11/08 10:54:55;;;;;;;5.70;1.45;;;;;;;10.69;83.65;97721.53;4986054;28;20137;-44
2022/11/08 10:57:23;;;;;;;7.32;1.33;;;;;;;10.71;83.54;97722.69;4985192;28;20073;-48
2022/11/08 10:59:50;;;;;;;9.63;1.45;;;;;;;10.75;83.58;97736.47;4987854;28;20065;-46
2022/11/08 11:02:17;;;;;;;6.43;1.20;;;;;;;10.78;83.25;97735.63;4988714;28;20065;-43
2022/11/08 11:04:44;;;;;;;7.13;2.75;;;;;;;10.79;83.03;97726.13;4985931;28;20046;-44
2022/11/08 11:07:26;;;;;;;4.85;1.10;;;;;;;10.80;82.95;97739.53;4984315;28;20498;-45
2022/11/08 11:09:53;;;;;;;8.27;1.95;;;;;;;10.81;83.03;97743.06;5000023;28;20062;-43
2022/11/08 11:12:20;;;;;;;9.40;1.40;;;;;;;10.85;82.73;97747.38;4988798;28;20042;-44
2022/11/08 11:14:56;;;;;;;6.15;1.00;;;;;;;10.91;82.55;97740.13;4987442;28;20105;-44
2022/11/08 11:17:32;;;;;;;7.55;1.30;;;;;;;10.98;82.53;97739.25;4980828;28;20046;-44
2022/11/08 11:20:18;;;;;;;5.35;2.40;;;;;;;11.01;82.65;97743.97;4988569;28;20068;-45
2022/11/08 11:22:45;;;;;;;8.95;2.15;;;;;;;11.04;82.54;97734.78;4987981;28;20046;-44
2022/11/08 11:25:18;;;;;;;5.40;1.40;;;;;;;11.06;82.30;97740.69;4986899;28;20061;-43
2022/11/08 11:27:53;;;;;;;7.38;1.10;;;;;;;11.06;82.30;97732.41;4985520;28;20038;-43
2022/11/08 11:30:22;;;;;;;8.50;1.20;;;;;;;11.06;82.25;97746.25;4986708;28;20492;-44
2022/11/08 11:32:55;;;;;;;13.10;1.83;;;;;;;11.05;82.24;97738.34;4992363;28;20129;-46
2022/11/08 11:35:26;;;;;;;11.98;1.50;;;;;;;11.04;82.24;97736.78;4989015;28;20457;-43
2022/11/08 11:37:54;;;;;;;7.75;1.52;;;;;;;11.02;82.29;97729.69;4990426;28;20038;-45
2022/11/08 11:40:23;;;;;;;8.82;1.85;;;;;;;11.02;82.14;97734.44;4992253;28;20061;-43
2022/11/08 11:43:15;;;;;;;10.95;2.20;;;;;;;11.02;82.12;97710.31;5000591;28;20043;-43
2022/11/08 11:46:32;;;;;;;7.43;0.88;;;;;;;11.05;82.14;97718.97;4987118;28;20125;-46
2022/11/08 11:49:14;;;;;;;5.38;2.72;;;;;;;11.12;81.88;97705.00;4964737;28;20053;-45
2022/11/08 11:51:41;;;;;;;2.85;0.80;;;;;;;11.20;81.80;97712.75;4991016;28;20042;-44
2022/11/08 11:54:12;;;;;;;3.78;0.47;;;;;;;11.33;81.26;97716.47;4988651;28;20054;-44
2022/11/08 11:56:40;;;;;;;;;;;;;;;11.48;81.00;97717.78;4986545;28;20042;-47
2022/11/08 11:59:22;;;;;;;6.22;0.73;;;;;;;11.68;80.77;97711.47;4991214;28;20020;-49
2022/11/08 12:01:54;;;;;;;9.25;0.75;;;;;;;11.77;80.43;97708.94;4989732;28;20408;-47
2022/11/08 12:04:56;;;;;;;3.83;0.77;;;;;;;11.82;79.98;97708.44;4989419;28;20046;-46
2022/11/08 12:07:31;;;;;;;2.20;0.38;;;;;;;11.81;79.46;97701.34;4980742;28;20077;-46
2022/11/08 12:10:13;;;;;;;4.22;0.47;;;;;;;11.80;79.13;97699.78;5003432;28;20389;-47